Time;durP1;ratioP1;P1;durP2;ratioP2;P2;SDS_P1;SDS_P2;PMS_P1;PMS_P2;Temp;Humidity;BMP_temperature;BMP_pressure;BME280_temperature;BME280_humidity;BME280_pressure;Samples;Min_cycle;Max_cycle;Signal;HPM_P1;HPM_P2
2023/06/06 00:01:01;;;;;;;1.77;1.67;;;;;;;19.05;42.55;101719.94;4892550;28;96916;-47
2023/06/06 00:03:28;;;;;;;1.43;1.33;;;;;;;18.97;42.51;101721.06;4893896;28;97173;-50
2023/06/06 00:05:54;;;;;;;1.40;1.30;;;;;;;18.96;42.67;101714.72;4891231;28;97247;-48
2023/06/06 00:08:23;;;;;;;2.37;1.40;;;;;;;18.95;42.62;101716.00;4890436;28;97947;-50
2023/06/06 00:10:49;;;;;;;1.80;1.70;;;;;;;18.93;42.74;101715.78;4890813;28;97616;-47
2023/06/06 00:13:15;;;;;;;2.07;1.40;;;;;;;18.91;42.83;101718.34;4892886;28;97251;-49
2023/06/06 00:15:41;;;;;;;1.50;1.37;;;;;;;18.92;42.77;101716.28;4890045;28;97118;-46
2023/06/06 00:18:07;;;;;;;1.70;1.23;;;;;;;18.91;42.72;101715.56;4890087;28;97045;-47
2023/06/06 00:20:32;;;;;;;2.80;1.53;;;;;;;18.86;43.11;101716.34;4892607;28;97806;-49
2023/06/06 00:22:59;;;;;;;1.50;1.40;;;;;;;18.84;42.81;101710.56;4891430;28;97031;-52
2023/06/06 00:25:25;;;;;;;1.37;1.27;;;;;;;18.80;43.08;101715.69;4890078;28;97395;-47
2023/06/06 00:27:50;;;;;;;1.63;1.53;;;;;;;18.78;42.93;101707.09;4888932;28;98120;-51
2023/06/06 00:30:15;;;;;;;1.03;0.80;;;;;;;18.77;42.97;101704.78;4891713;28;98980;-48
2023/06/06 00:32:41;;;;;;;2.70;1.30;;;;;;;18.74;43.06;101709.38;4894750;28;97536;-53
2023/06/06 00:35:06;;;;;;;1.40;1.10;;;;;;;18.63;42.95;101704.69;4892304;28;97106;-47
2023/06/06 00:37:32;;;;;;;1.60;1.50;;;;;;;18.56;43.17;101710.09;4892116;28;96887;-50
2023/06/06 00:39:57;;;;;;;1.37;1.27;;;;;;;18.54;43.20;101709.88;4891338;28;97369;-49
2023/06/06 00:42:22;;;;;;;1.50;1.40;;;;;;;18.49;43.18;101708.66;4891209;28;102098;-49
2023/06/06 00:44:47;;;;;;;1.57;0.97;;;;;;;18.49;43.36;101714.22;4890173;28;104501;-48
2023/06/06 00:47:13;;;;;;;1.20;1.10;;;;;;;18.46;43.31;101715.25;4889846;28;101608;-50
2023/06/06 00:49:40;;;;;;;1.07;0.97;;;;;;;18.43;43.37;101715.53;4889303;28;97401;-48
2023/06/06 00:52:06;;;;;;;1.57;1.47;;;;;;;18.38;43.56;101716.31;4891114;28;96985;-51
2023/06/06 00:54:33;;;;;;;1.43;1.33;;;;;;;18.36;43.44;101718.88;4892362;28;97060;-55
2023/06/06 00:57:00;;;;;;;1.30;1.10;;;;;;;18.35;43.73;101714.56;4893133;28;97210;-48
2023/06/06 00:59:26;;;;;;;1.63;1.50;;;;;;;18.31;43.74;101708.53;4890903;28;97319;-49
2023/06/06 01:01:51;;;;;;;1.50;1.40;;;;;;;18.28;43.64;101715.91;4889613;28;96813;-50
2023/06/06 01:04:17;;;;;;;1.40;1.30;;;;;;;18.23;43.64;101711.16;4890941;28;96824;-48
2023/06/06 01:06:43;;;;;;;1.93;1.83;;;;;;;18.21;43.58;101705.34;4890443;28;97307;-48
2023/06/06 01:09:11;;;;;;;1.83;1.40;;;;;;;18.15;43.69;101707.41;4890245;28;97011;-48
2023/06/06 01:11:42;;;;;;;1.47;1.37;;;;;;;18.14;44.04;101707.94;4889717;28;97073;-50
2023/06/06 01:14:27;;;;;;;2.03;1.63;;;;;;;18.05;44.66;101705.47;4889430;28;96937;-49
2023/06/06 01:16:57;;;;;;;1.57;1.47;;;;;;;18.01;43.93;101702.22;4891427;28;98130;-49
2023/06/06 01:19:29;;;;;;;1.50;1.40;;;;;;;17.96;44.08;101696.19;4889161;28;96746;-50
2023/06/06 01:21:58;;;;;;;1.70;1.53;;;;;;;17.92;43.97;101706.84;4888309;28;97138;-51
2023/06/06 01:24:24;;;;;;;1.83;1.73;;;;;;;17.90;44.06;101701.03;4889933;28;96880;-48
2023/06/06 01:26:51;;;;;;;1.60;1.47;;;;;;;17.89;44.02;101710.66;4889788;28;96820;-51
2023/06/06 01:29:16;;;;;;;2.87;1.70;;;;;;;17.86;44.04;101700.56;4891272;28;98843;-50
2023/06/06 01:31:45;;;;;;;1.50;1.40;;;;;;;17.83;44.07;101704.38;4890365;28;97146;-49
2023/06/06 01:34:40;;;;;;;1.47;1.47;;;;;;;17.79;44.81;101709.47;4890435;28;97122;-47
2023/06/06 01:37:08;;;;;;;1.70;1.47;;;;;;;17.76;44.14;101704.94;4870972;28;98026;-50
2023/06/06 01:39:36;;;;;;;1.77;1.37;;;;;;;17.75;44.15;101703.44;4892025;28;97184;-50
2023/06/06 01:42:02;;;;;;;4.00;1.57;;;;;;;17.71;44.20;101697.38;4890197;28;96827;-51
2023/06/06 01:44:30;;;;;;;2.53;1.80;;;;;;;17.70;44.41;101709.03;4890314;28;97154;-50
2023/06/06 01:46:55;;;;;;;2.40;1.53;;;;;;;17.65;44.51;101699.44;4889789;28;97086;-50
2023/06/06 01:49:25;;;;;;;2.43;1.73;;;;;;;17.62;44.54;101700.50;4892232;28;97378;-51
2023/06/06 01:51:52;;;;;;;2.23;1.50;;;;;;;17.60;44.52;101705.06;4891026;28;96876;-50
2023/06/06 01:54:17;;;;;;;2.10;1.93;;;;;;;17.54;44.59;101699.50;4892786;28;97352;-49
2023/06/06 01:56:42;;;;;;;1.90;1.50;;;;;;;17.50;44.53;101704.59;4890172;28;97223;-49
2023/06/06 01:59:08;;;;;;;1.93;1.73;;;;;;;17.47;44.68;101702.81;4889505;28;97310;-50
2023/06/06 02:01:34;;;;;;;1.70;1.60;;;;;;;17.42;44.76;101706.41;4890080;28;97750;-48
2023/06/06 02:03:59;;;;;;;1.13;1.03;;;;;;;17.42;44.78;101703.59;4892584;28;97584;-48
2023/06/06 02:06:25;;;;;;;1.57;1.47;;;;;;;17.37;44.84;101709.94;4890568;28;96952;-49
2023/06/06 02:08:50;;;;;;;3.27;1.50;;;;;;;17.34;45.05;101711.00;4890435;28;97791;-48
2023/06/06 02:11:15;;;;;;;2.80;2.00;;;;;;;17.31;44.85;101714.03;4893000;28;97264;-52
2023/06/06 02:13:41;;;;;;;2.50;1.87;;;;;;;17.30;44.92;101715.31;4894160;28;97075;-51
2023/06/06 02:16:07;;;;;;;1.50;1.40;;;;;;;17.25;44.99;101714.06;4890330;28;98671;-48
2023/06/06 02:18:33;;;;;;;2.23;1.50;;;;;;;17.20;44.97;101718.38;4891647;28;97345;-51
2023/06/06 02:20:58;;;;;;;1.37;1.27;;;;;;;17.16;45.04;101725.47;4890906;28;97416;-47
2023/06/06 02:23:24;;;;;;;1.60;1.50;;;;;;;17.08;45.15;101716.91;4891721;28;96764;-50
2023/06/06 02:25:50;;;;;;;1.63;1.50;;;;;;;17.03;44.92;101712.16;4892935;28;97297;-49
2023/06/06 02:28:16;;;;;;;1.67;1.57;;;;;;;16.97;44.94;101705.09;4892135;28;97229;-49
2023/06/06 02:30:41;;;;;;;1.57;1.47;;;;;;;16.90;45.11;101708.41;4891887;28;97132;-48
2023/06/06 02:33:07;;;;;;;1.87;1.50;;;;;;;16.81;45.20;101711.47;4890221;28;97155;-48
2023/06/06 02:35:33;;;;;;;1.60;1.50;;;;;;;16.76;45.36;101709.44;4891225;28;97397;-52
2023/06/06 02:37:59;;;;;;;1.80;1.70;;;;;;;16.69;45.50;101715.50;4890397;28;97308;-47
2023/06/06 02:40:24;;;;;;;1.93;1.23;;;;;;;16.66;45.43;101713.78;4889840;28;97076;-50
2023/06/06 02:42:50;;;;;;;2.87;1.57;;;;;;;16.62;45.51;101710.50;4892374;28;96632;-48
2023/06/06 02:45:16;;;;;;;2.03;1.73;;;;;;;16.59;45.45;101719.84;4890010;28;97058;-49
2023/06/06 02:47:41;;;;;;;1.70;1.60;;;;;;;16.54;45.53;101723.38;4892103;28;97095;-48
2023/06/06 02:50:07;;;;;;;2.00;1.73;;;;;;;16.46;45.74;101721.09;4893909;28;99704;-50
2023/06/06 02:52:33;;;;;;;1.93;1.83;;;;;;;16.44;45.74;101712.53;4891906;28;96950;-52
2023/06/06 02:54:58;;;;;;;1.90;1.80;;;;;;;16.39;45.66;101718.84;4889066;28;97788;-51
2023/06/06 02:57:24;;;;;;;1.57;1.43;;;;;;;16.33;45.81;101715.31;4890475;28;97167;-47
2023/06/06 02:59:50;;;;;;;1.87;1.60;;;;;;;16.30;45.82;101721.88;4893194;28;97353;-49
2023/06/06 03:02:16;;;;;;;2.33;1.80;;;;;;;16.24;45.88;101712.78;4890884;28;96819;-49
2023/06/06 03:04:43;;;;;;;1.67;1.57;;;;;;;16.18;46.09;101717.59;4889625;28;98519;-50
2023/06/06 03:07:10;;;;;;;2.03;1.90;;;;;;;16.13;46.22;101721.13;4890993;28;97151;-48
2023/06/06 03:09:36;;;;;;;1.93;1.83;;;;;;;16.11;46.24;101718.09;4889886;28;97192;-51
2023/06/06 03:12:01;;;;;;;2.37;1.83;;;;;;;16.11;46.28;101712.56;4887646;28;97237;-51
2023/06/06 03:14:27;;;;;;;1.90;1.80;;;;;;;16.08;46.39;101713.53;4887780;28;97334;-49
2023/06/06 03:16:53;;;;;;;1.57;1.47;;;;;;;16.08;46.33;101719.09;4888280;28;97202;-48
2023/06/06 03:19:18;;;;;;;1.77;1.67;;;;;;;16.04;46.40;101710.25;4891034;28;97236;-47
2023/06/06 03:21:44;;;;;;;1.60;1.50;;;;;;;16.01;46.30;101722.38;4893922;28;103365;-49
2023/06/06 03:24:10;;;;;;;1.87;1.77;;;;;;;16.00;46.30;101717.34;4891066;28;97288;-47
2023/06/06 03:26:36;;;;;;;2.30;2.10;;;;;;;15.97;46.40;101724.66;4892658;28;97603;-52
2023/06/06 03:29:02;;;;;;;2.87;2.00;;;;;;;15.96;46.41;101717.59;4891137;28;96829;-49
2023/06/06 03:31:29;;;;;;;1.80;1.67;;;;;;;15.93;46.39;101732.47;4895029;28;97195;-53
2023/06/06 03:33:54;;;;;;;1.90;1.80;;;;;;;15.88;46.56;101724.16;4892399;28;98080;-50
2023/06/06 03:36:20;;;;;;;1.80;1.70;;;;;;;15.85;46.67;101725.91;4894282;28;102827;-51
2023/06/06 03:38:45;;;;;;;1.57;1.40;;;;;;;15.83;46.65;101730.44;4892394;28;96691;-50
2023/06/06 03:41:11;;;;;;;1.93;1.80;;;;;;;15.81;46.82;101724.63;4890868;28;97345;-50
2023/06/06 03:43:36;;;;;;;2.00;1.80;;;;;;;15.79;46.90;101722.38;4894595;28;96949;-47
2023/06/06 03:46:01;;;;;;;2.07;1.97;;;;;;;15.76;47.01;101720.59;4892641;28;97890;-47
2023/06/06 03:48:27;;;;;;;1.73;1.63;;;;;;;15.77;47.06;101726.91;4893050;28;96977;-52
2023/06/06 03:50:52;;;;;;;1.70;1.60;;;;;;;15.77;46.79;101728.41;4888814;28;97707;-50
2023/06/06 03:53:18;;;;;;;3.80;2.20;;;;;;;15.77;46.92;101722.09;4892594;28;97023;-51
2023/06/06 03:55:47;;;;;;;2.00;1.90;;;;;;;15.78;46.92;101729.16;4890626;28;96979;-51
2023/06/06 03:58:15;;;;;;;1.60;1.50;;;;;;;15.72;47.26;101729.19;4890863;28;97297;-49
2023/06/06 04:00:41;;;;;;;1.63;1.53;;;;;;;15.73;47.10;101722.34;4891638;28;97135;-49
2023/06/06 04:03:06;;;;;;;2.70;1.83;;;;;;;15.74;47.18;101728.66;4893586;28;97197;-49
2023/06/06 04:05:32;;;;;;;3.20;1.97;;;;;;;15.74;47.01;101723.88;4891128;28;96930;-47
2023/06/06 04:07:59;;;;;;;1.70;1.60;;;;;;;15.76;46.92;101726.16;4895924;28;97116;-50
2023/06/06 04:10:24;;;;;;;2.17;2.00;;;;;;;15.70;46.98;101736.47;4890775;28;97471;-49
2023/06/06 04:12:50;;;;;;;2.50;1.70;;;;;;;15.67;47.23;101729.16;4891599;28;97585;-51
2023/06/06 04:15:15;;;;;;;1.70;1.60;;;;;;;15.65;47.25;101731.66;4903370;28;97223;-52
2023/06/06 04:17:40;;;;;;;1.80;1.70;;;;;;;15.65;47.30;101732.44;4892929;28;97333;-48
2023/06/06 04:20:08;;;;;;;4.40;1.80;;;;;;;15.71;47.40;101730.41;4888973;28;96962;-50
2023/06/06 04:22:34;;;;;;;2.33;1.97;;;;;;;15.74;47.47;101728.66;4891164;28;97643;-48
2023/06/06 04:24:59;;;;;;;2.53;2.40;;;;;;;15.77;47.40;101731.19;4893456;28;96947;-49
2023/06/06 04:27:25;;;;;;;3.70;2.20;;;;;;;15.78;47.23;101737.50;4892099;28;97310;-47
2023/06/06 04:29:53;;;;;;;2.03;1.70;;;;;;;15.78;47.34;101726.41;4891468;28;97142;-49
2023/06/06 04:32:19;;;;;;;2.40;1.80;;;;;;;15.77;47.47;101735.97;4890350;28;97104;-47
2023/06/06 04:34:45;;;;;;;1.90;1.67;;;;;;;15.79;47.63;101735.47;4890977;28;96994;-50
2023/06/06 04:37:13;;;;;;;1.77;1.67;;;;;;;15.83;47.65;101733.97;4893463;28;97134;-49
2023/06/06 04:39:40;;;;;;;2.30;2.10;;;;;;;15.86;47.81;101735.72;4894734;28;97624;-47
2023/06/06 04:42:06;;;;;;;1.97;1.87;;;;;;;15.89;47.80;101734.75;4896429;28;97508;-49
2023/06/06 04:44:33;;;;;;;1.67;1.57;;;;;;;15.93;47.97;101734.47;4895024;28;97099;-49
2023/06/06 04:47:03;;;;;;;2.10;2.00;;;;;;;15.97;47.82;101746.09;4891001;28;97039;-49
2023/06/06 04:49:35;;;;;;;2.40;1.90;;;;;;;16.01;47.88;101743.84;4890215;28;96999;-49
2023/06/06 04:52:12;;;;;;;2.43;1.70;;;;;;;16.08;47.64;101755.19;4890445;28;97118;-49
2023/06/06 04:54:38;;;;;;;2.10;2.00;;;;;;;16.11;47.90;101745.88;4891313;28;97578;-50
2023/06/06 04:57:06;;;;;;;2.10;2.00;;;;;;;16.14;47.92;101741.31;4892736;28;96716;-51
2023/06/06 04:59:33;;;;;;;2.37;2.07;;;;;;;16.18;47.97;101737.03;4892596;28;97285;-50
2023/06/06 05:01:59;;;;;;;7.20;1.63;;;;;;;16.23;48.09;101743.81;4890799;28;96615;-51
2023/06/06 05:04:25;;;;;;;2.27;2.17;;;;;;;16.29;48.13;101739.06;4894510;28;97380;-51
2023/06/06 05:06:51;;;;;;;2.23;2.13;;;;;;;16.37;48.39;101740.03;4892124;28;97038;-49
2023/06/06 05:09:17;;;;;;;2.03;1.90;;;;;;;16.45;48.05;101741.03;4890165;28;97040;-54
2023/06/06 05:11:46;;;;;;;1.90;1.80;;;;;;;16.51;48.41;101746.63;4891740;28;97246;-52
2023/06/06 05:14:12;;;;;;;1.70;1.60;;;;;;;16.56;48.20;101746.63;4892264;28;97051;-49
2023/06/06 05:16:37;;;;;;;2.23;1.67;;;;;;;16.63;48.23;101748.13;4890857;28;97037;-49
2023/06/06 05:19:03;;;;;;;2.23;2.00;;;;;;;16.69;48.28;101752.41;4889014;28;101649;-50
2023/06/06 05:21:28;;;;;;;2.07;1.97;;;;;;;16.78;48.30;101745.81;4891068;28;105564;-48
2023/06/06 05:23:54;;;;;;;1.87;1.77;;;;;;;16.87;48.28;101740.00;4889412;28;97897;-55
2023/06/06 05:26:20;;;;;;;1.77;1.67;;;;;;;16.94;48.37;101743.00;4897653;28;97188;-52
2023/06/06 05:28:45;;;;;;;1.97;1.80;;;;;;;17.02;48.29;101743.97;4892522;28;96977;-51
2023/06/06 05:31:12;;;;;;;2.73;1.90;;;;;;;17.11;48.33;101745.72;4892500;28;97564;-49
2023/06/06 05:33:41;;;;;;;5.50;2.00;;;;;;;17.16;48.84;101742.16;4892604;28;97421;-49
2023/06/06 05:36:07;;;;;;;4.80;1.90;;;;;;;17.22;48.53;101746.44;4889448;28;96753;-48
2023/06/06 05:38:32;;;;;;;2.47;2.27;;;;;;;17.31;48.40;101739.06;4892012;28;97228;-50
2023/06/06 05:40:57;;;;;;;3.37;1.60;;;;;;;17.41;48.23;101743.81;4891117;28;97038;-49
2023/06/06 05:43:24;;;;;;;2.00;1.80;;;;;;;17.58;48.27;101743.78;4891645;28;97169;-49
2023/06/06 05:45:50;;;;;;;2.30;1.40;;;;;;;17.67;47.95;101746.25;4892812;28;97194;-49
2023/06/06 05:48:15;;;;;;;3.27;1.87;;;;;;;17.79;47.89;101737.31;4890659;28;96997;-52
2023/06/06 05:50:41;;;;;;;1.73;1.40;;;;;;;17.94;47.81;101746.06;4889417;28;98744;-49
2023/06/06 05:53:06;;;;;;;7.17;1.33;;;;;;;18.09;47.71;101742.91;4890742;28;97270;-49
2023/06/06 05:55:33;;;;;;;1.83;1.53;;;;;;;18.24;47.53;101742.56;4889418;28;97031;-47
2023/06/06 05:57:59;;;;;;;1.47;1.37;;;;;;;18.39;47.32;101748.50;4891683;28;97257;-51
2023/06/06 06:00:26;;;;;;;1.80;1.70;;;;;;;18.53;47.19;101741.78;4887559;28;97462;-49
2023/06/06 06:02:53;;;;;;;2.23;1.40;;;;;;;18.65;47.18;101743.94;4890220;28;97786;-49
2023/06/06 06:05:19;;;;;;;2.50;1.60;;;;;;;18.79;47.17;101753.19;4889321;28;96828;-48
2023/06/06 06:07:44;;;;;;;2.03;1.40;;;;;;;18.88;46.96;101752.84;4888975;28;96960;-47
2023/06/06 06:10:10;;;;;;;2.03;1.80;;;;;;;19.00;46.98;101739.53;4889686;28;97677;-47
2023/06/06 06:12:36;;;;;;;2.50;1.30;;;;;;;19.12;46.83;101746.47;4891729;28;97174;-49
2023/06/06 06:15:01;;;;;;;1.40;1.30;;;;;;;19.23;46.51;101740.75;4890802;28;97226;-52
2023/06/06 06:17:27;;;;;;;1.63;1.53;;;;;;;19.35;46.67;101748.50;4892164;28;96797;-48
2023/06/06 06:19:52;;;;;;;1.50;1.40;;;;;;;19.50;46.47;101747.31;4890941;28;99452;-50
2023/06/06 06:22:17;;;;;;;1.30;1.20;;;;;;;19.60;46.47;101751.22;4891966;28;98735;-52
2023/06/06 06:24:43;;;;;;;1.50;1.40;;;;;;;19.72;46.31;101753.34;4889434;28;96923;-49
2023/06/06 06:27:08;;;;;;;1.37;1.10;;;;;;;19.83;46.12;101755.94;4886602;28;97482;-51
2023/06/06 06:29:34;;;;;;;1.87;1.60;;;;;;;19.89;46.05;101751.06;4891406;28;97995;-51
2023/06/06 06:31:59;;;;;;;2.10;1.63;;;;;;;20.02;46.19;101750.34;4890319;28;97289;-51
2023/06/06 06:34:25;;;;;;;1.57;1.47;;;;;;;20.11;45.77;101758.31;4891289;28;96636;-48
2023/06/06 06:36:50;;;;;;;2.97;1.40;;;;;;;20.20;45.78;101755.13;4891214;28;96885;-50
2023/06/06 06:39:18;;;;;;;1.73;1.60;;;;;;;20.29;45.72;101763.13;4886685;28;97169;-47
2023/06/06 06:41:45;;;;;;;1.70;1.60;;;;;;;20.40;45.65;101756.63;4890482;28;96847;-47
2023/06/06 06:44:11;;;;;;;1.67;1.27;;;;;;;20.48;45.50;101752.66;4890841;28;97617;-49
2023/06/06 06:46:36;;;;;;;1.60;1.37;;;;;;;20.56;44.90;101752.75;4891260;28;97296;-48
2023/06/06 06:49:02;;;;;;;1.57;1.40;;;;;;;20.66;45.12;101754.59;4906995;28;99232;-55
2023/06/06 06:51:29;;;;;;;1.33;1.23;;;;;;;20.73;45.22;101759.56;4891239;28;98635;-51
2023/06/06 06:53:57;;;;;;;2.93;1.40;;;;;;;20.82;44.95;101756.34;4890471;28;98433;-50
2023/06/06 06:56:24;;;;;;;1.23;1.10;;;;;;;20.92;44.55;101759.47;4890513;28;97197;-49
2023/06/06 06:58:49;;;;;;;1.60;1.43;;;;;;;21.03;44.55;101755.69;4891538;28;98608;-53
2023/06/06 07:01:17;;;;;;;1.40;1.30;;;;;;;21.14;44.14;101761.09;4890142;28;97498;-48
2023/06/06 07:03:44;;;;;;;1.40;1.33;;;;;;;21.29;43.94;101755.69;4890055;28;97271;-52
2023/06/06 07:06:10;;;;;;;1.37;1.27;;;;;;;21.43;43.77;101754.34;4891823;28;96815;-52
2023/06/06 07:08:36;;;;;;;3.43;1.80;;;;;;;21.50;43.23;101750.91;4890118;28;98786;-51
2023/06/06 07:11:02;;;;;;;1.40;1.20;;;;;;;21.60;43.33;101749.91;4889401;28;110462;-49
2023/06/06 07:13:28;;;;;;;1.50;1.40;;;;;;;21.76;42.99;101750.06;4884924;28;96833;-52
2023/06/06 07:15:53;;;;;;;4.00;1.63;;;;;;;21.88;43.00;101752.09;4891965;28;96831;-50
2023/06/06 07:18:18;;;;;;;2.20;1.47;;;;;;;22.00;42.65;101752.56;4889173;28;103101;-50
2023/06/06 07:20:44;;;;;;;2.30;1.40;;;;;;;22.08;42.60;101747.81;4889276;28;97027;-49
2023/06/06 07:23:10;;;;;;;1.37;1.27;;;;;;;22.15;42.15;101750.69;4889519;28;96851;-48
2023/06/06 07:25:35;;;;;;;1.30;1.20;;;;;;;22.26;42.12;101746.84;4887266;28;97256;-47
2023/06/06 07:28:00;;;;;;;1.30;1.20;;;;;;;22.36;42.09;101745.81;4891915;28;97959;-52
2023/06/06 07:30:26;;;;;;;1.30;1.20;;;;;;;22.46;41.74;101748.13;4889491;28;96806;-50
2023/06/06 07:32:52;;;;;;;1.33;1.23;;;;;;;22.56;41.69;101751.94;4895897;28;97120;-50
2023/06/06 07:35:21;;;;;;;2.20;1.70;;;;;;;22.64;41.46;101749.97;4892082;28;97415;-49
2023/06/06 07:37:46;;;;;;;1.50;1.40;;;;;;;22.72;41.22;101747.97;4887139;28;96891;-49
2023/06/06 07:40:12;;;;;;;2.20;1.30;;;;;;;22.87;41.35;101746.00;4885851;28;97543;-49
2023/06/06 07:42:39;;;;;;;2.33;1.40;;;;;;;22.97;40.81;101751.88;4892391;28;97417;-50
2023/06/06 07:45:05;;;;;;;2.27;1.37;;;;;;;23.08;40.61;101745.94;4891974;28;97138;-50
2023/06/06 07:47:31;;;;;;;1.47;1.20;;;;;;;23.22;40.55;101743.75;4890755;28;97878;-52
2023/06/06 07:49:56;;;;;;;1.33;1.23;;;;;;;23.34;40.40;101751.31;4889240;28;97199;-51
2023/06/06 07:52:22;;;;;;;1.23;1.20;;;;;;;23.36;40.05;101743.09;4890868;28;96855;-49
2023/06/06 07:54:47;;;;;;;1.30;1.20;;;;;;;23.44;39.51;101746.69;4888283;28;97287;-48
2023/06/06 07:57:15;;;;;;;1.63;1.53;;;;;;;23.53;39.51;101748.19;4889702;28;100291;-49
2023/06/06 07:59:42;;;;;;;1.73;1.63;;;;;;;23.60;39.45;101741.84;4887463;28;97148;-53
2023/06/06 08:02:07;;;;;;;1.33;1.23;;;;;;;23.73;39.64;101736.84;4890072;28;97319;-50
2023/06/06 08:04:32;;;;;;;2.30;1.47;;;;;;;23.82;39.34;101744.72;4888943;28;96979;-48
2023/06/06 08:06:58;;;;;;;1.83;1.40;;;;;;;23.92;39.25;101744.19;4890581;28;98521;-52
2023/06/06 08:09:23;;;;;;;1.30;1.20;;;;;;;23.98;39.05;101739.13;4892875;28;97068;-49
2023/06/06 08:11:49;;;;;;;1.30;1.07;;;;;;;24.08;38.98;101742.91;4892781;28;96648;-49
2023/06/06 08:14:14;;;;;;;1.57;1.47;;;;;;;24.12;38.89;101741.22;4893561;28;97590;-51
2023/06/06 08:16:39;;;;;;;1.60;1.50;;;;;;;24.20;38.60;101739.16;4890331;28;96814;-50
2023/06/06 08:19:05;;;;;;;2.10;1.33;;;;;;;24.30;38.44;101745.75;4891122;28;97276;-49
2023/06/06 08:21:30;;;;;;;1.77;1.27;;;;;;;24.33;38.31;101738.25;4891451;28;96909;-48
2023/06/06 08:23:57;;;;;;;3.07;1.57;;;;;;;24.44;37.92;101741.41;4889069;28;102699;-52
2023/06/06 08:26:25;;;;;;;1.33;1.23;;;;;;;24.53;37.64;101743.66;4890712;28;97611;-52
2023/06/06 08:28:53;;;;;;;1.00;1.00;;;;;;;24.63;37.67;101731.81;4890187;28;97185;-49
2023/06/06 08:31:19;;;;;;;1.37;1.10;;;;;;;24.76;37.46;101728.81;4888930;28;99935;-48
2023/06/06 08:33:45;;;;;;;1.40;1.30;;;;;;;24.83;37.47;101728.81;4892266;28;97161;-49
2023/06/06 08:36:11;;;;;;;1.40;1.30;;;;;;;24.93;37.38;101735.34;4890383;28;97203;-51
2023/06/06 08:38:38;;;;;;;1.50;1.40;;;;;;;24.99;37.07;101724.63;4891314;28;97178;-48
2023/06/06 08:41:05;;;;;;;1.40;1.30;;;;;;;25.06;37.00;101726.66;4891179;28;96989;-51
2023/06/06 08:43:36;;;;;;;1.83;1.20;;;;;;;25.16;36.91;101724.75;4892852;28;96615;-50
2023/06/06 08:46:02;;;;;;;1.77;1.50;;;;;;;25.29;36.81;101716.03;4890703;28;97582;-50
2023/06/06 08:48:28;;;;;;;1.57;1.47;;;;;;;25.46;36.76;101721.06;4892971;28;98393;-51
2023/06/06 08:50:56;;;;;;;3.83;1.47;;;;;;;25.60;35.98;101718.75;4891145;28;97180;-49
2023/06/06 08:53:22;;;;;;;1.23;0.90;;;;;;;25.73;36.08;101715.66;4891502;28;97159;-47
2023/06/06 08:55:47;;;;;;;1.87;1.20;;;;;;;25.94;36.17;101716.06;4894374;28;97969;-49
2023/06/06 08:58:14;;;;;;;5.20;2.00;;;;;;;26.13;35.86;101713.50;4893550;28;97215;-49
2023/06/06 09:00:40;;;;;;;1.43;1.33;;;;;;;26.24;35.52;101724.31;4891981;28;98668;-50
2023/06/06 09:03:12;;;;;;;1.57;1.43;;;;;;;26.32;33.86;101722.16;4894827;28;99375;-48
2023/06/06 09:05:38;;;;;;;1.97;1.33;;;;;;;26.30;34.96;101716.34;4892806;28;98917;-50
2023/06/06 09:08:05;;;;;;;1.40;1.30;;;;;;;26.39;34.96;101717.78;4890154;28;97128;-52
2023/06/06 09:10:30;;;;;;;1.70;1.37;;;;;;;26.48;34.79;101717.88;4890491;28;97155;-51
2023/06/06 09:12:56;;;;;;;1.40;1.30;;;;;;;26.52;34.65;101718.22;4891393;28;97315;-50
2023/06/06 09:15:21;;;;;;;3.03;1.50;;;;;;;26.60;34.42;101727.34;4894217;28;106702;-49
2023/06/06 09:17:52;;;;;;;1.43;1.33;;;;;;;26.77;33.94;101717.44;4889278;28;98354;-47
2023/06/06 09:20:18;;;;;;;2.30;1.23;;;;;;;26.91;34.32;101713.69;4888826;28;97240;-51
2023/06/06 09:22:46;;;;;;;1.87;1.20;;;;;;;27.00;33.92;101726.38;4890156;28;97309;-48
2023/06/06 09:25:22;;;;;;;1.63;1.53;;;;;;;27.14;32.93;101719.06;4890612;28;98083;-48
2023/06/06 09:27:52;;;;;;;1.50;1.37;;;;;;;27.27;33.59;101715.88;4891860;28;97770;-49
2023/06/06 09:30:22;;;;;;;2.20;1.63;;;;;;;27.50;33.58;101710.69;4889101;28;97012;-49
2023/06/06 09:32:58;;;;;;;2.20;2.00;;;;;;;27.73;32.74;101702.63;4890817;28;97514;-51
2023/06/06 09:35:29;;;;;;;1.60;1.50;;;;;;;27.90;32.93;101708.22;4889476;28;96855;-51
2023/06/06 09:37:56;;;;;;;1.07;1.00;;;;;;;28.05;32.66;101710.81;4890909;28;96824;-48
2023/06/06 09:40:23;;;;;;;1.53;1.43;;;;;;;28.13;32.39;101708.59;4890011;28;96808;-50
2023/06/06 09:42:49;;;;;;;3.23;1.80;;;;;;;28.03;32.38;101704.25;4890451;28;97068;-50
2023/06/06 09:45:17;;;;;;;1.90;1.77;;;;;;;27.84;32.60;101699.25;4889207;28;96661;-50
2023/06/06 09:47:43;;;;;;;1.63;1.30;;;;;;;27.97;32.65;101700.94;4890290;28;97855;-50
2023/06/06 09:50:10;;;;;;;1.10;1.00;;;;;;;28.15;32.11;101691.78;4891575;28;97174;-52
2023/06/06 09:52:36;;;;;;;1.30;1.20;;;;;;;28.39;31.92;101698.56;4890696;28;96933;-49
2023/06/06 09:55:08;;;;;;;2.17;2.00;;;;;;;28.36;31.00;101698.97;4890102;28;96808;-49
2023/06/06 09:57:36;;;;;;;1.73;1.53;;;;;;;28.40;31.22;101693.59;4890741;28;96663;-49
2023/06/06 10:00:09;;;;;;;2.43;1.67;;;;;;;28.57;31.30;101699.91;4893361;28;97416;-49
2023/06/06 10:02:45;;;;;;;1.07;1.00;;;;;;;28.78;31.12;101696.50;4893768;28;97011;-52
2023/06/06 10:05:13;;;;;;;1.30;1.20;;;;;;;28.91;30.94;101696.06;4891731;28;97988;-52
2023/06/06 10:07:46;;;;;;;1.73;1.60;;;;;;;28.97;30.48;101690.84;4889288;28;98451;-48
2023/06/06 10:10:13;;;;;;;2.23;1.40;;;;;;;29.06;30.90;101692.16;4892562;28;96859;-50
2023/06/06 10:12:40;;;;;;;2.13;1.93;;;;;;;29.19;30.41;101694.56;4889443;28;97643;-48
2023/06/06 10:15:08;;;;;;;1.80;1.70;;;;;;;29.15;30.41;101688.56;4888591;28;97955;-51
2023/06/06 10:17:37;;;;;;;1.37;1.27;;;;;;;29.03;29.86;101693.38;4891710;28;96820;-51
2023/06/06 10:20:07;;;;;;;2.57;1.50;;;;;;;28.91;30.29;101698.91;4890117;28;98703;-48
2023/06/06 10:22:36;;;;;;;1.60;1.50;;;;;;;28.76;28.51;101696.38;4890737;28;97202;-52
2023/06/06 10:25:08;;;;;;;1.60;1.47;;;;;;;28.47;29.49;101696.31;4892291;28;98671;-49
2023/06/06 10:27:44;;;;;;;2.20;1.30;;;;;;;28.36;30.04;101694.06;4887309;28;97329;-49
2023/06/06 10:30:28;;;;;;;1.47;1.37;;;;;;;28.40;30.18;101697.19;4889360;28;97392;-50
2023/06/06 10:33:12;;;;;;;1.53;1.37;;;;;;;28.68;29.63;101690.13;4886825;28;97428;-49
2023/06/06 10:35:39;;;;;;;1.40;1.30;;;;;;;28.95;29.66;101690.69;4891262;28;97281;-48
2023/06/06 10:38:09;;;;;;;1.27;1.17;;;;;;;29.15;29.15;101689.31;4889410;28;98294;-52
2023/06/06 10:40:51;;;;;;;1.50;1.40;;;;;;;29.36;28.29;101688.69;4888189;28;97992;-51
2023/06/06 10:43:42;;;;;;;6.10;1.23;;;;;;;29.40;27.21;101689.00;4889255;28;96676;-51
2023/06/06 10:46:08;;;;;;;1.43;1.13;;;;;;;29.63;28.59;101680.72;4889797;28;97049;-49
2023/06/06 10:48:40;;;;;;;1.50;1.40;;;;;;;29.76;28.37;101680.22;4891535;28;97480;-49
2023/06/06 10:51:07;;;;;;;2.20;1.20;;;;;;;29.62;28.50;101688.47;4889839;28;97183;-53
2023/06/06 10:53:32;;;;;;;1.50;1.40;;;;;;;29.31;28.21;101693.31;4890186;28;97241;-49
2023/06/06 10:55:58;;;;;;;2.60;1.33;;;;;;;28.99;28.09;101688.13;4888099;28;97816;-49
2023/06/06 10:58:28;;;;;;;1.70;1.33;;;;;;;28.77;27.99;101689.34;4888888;28;96737;-50
2023/06/06 11:01:01;;;;;;;1.67;1.57;;;;;;;28.66;28.48;101684.28;4890313;28;97026;-50
2023/06/06 11:03:36;;;;;;;1.50;1.40;;;;;;;28.59;28.72;101685.91;4889800;28;96976;-49
2023/06/06 11:06:01;;;;;;;1.53;1.30;;;;;;;28.60;28.71;101693.06;4890462;28;97293;-48
2023/06/06 11:08:36;;;;;;;1.60;1.50;;;;;;;28.56;28.16;101680.66;4886810;28;96889;-52
2023/06/06 11:11:21;;;;;;;1.93;1.50;;;;;;;28.47;28.36;101684.25;4888463;28;97263;-48
2023/06/06 11:14:03;;;;;;;10.13;1.47;;;;;;;28.56;28.23;101675.75;4889970;28;96912;-49
2023/06/06 11:16:40;;;;;;;2.07;1.43;;;;;;;28.74;27.20;101679.97;4890133;28;97576;-51
2023/06/06 11:19:11;;;;;;;1.23;1.13;;;;;;;28.89;28.59;101679.66;4891138;28;97396;-48
2023/06/06 11:21:41;;;;;;;1.50;1.40;;;;;;;29.02;27.91;101680.53;4889073;28;96958;-52
2023/06/06 11:24:07;;;;;;;1.30;1.20;;;;;;;29.07;28.26;101679.50;4890310;28;97357;-51